Aviation Digital Data Service (ADDS)

Output produced by METARs form (1435 UTC 29 August 2016)
found at http://aviationweather.gov/adds/metars/
 
KMFD 291400Z 2914/3012 05008KT P6SM SCT015 
     TEMPO 2914/2916 BKN015 
     FM291600 04006KT P6SM SCT030 
     FM292300 01003KT P6SM SKC